KCRX/CRX METAR and TAF weather

Enter ICAO airport designator
Station Type Date Time Source
KCRX METAR 2020/01/18 04:35 UTC NOAA

KCRX 180435Z AUTO 15013G18KT 10SM BKN046 OVC085 15/01 A3023 RMK AO2


Station Type Date Time Source
KCRX Decoded METAR 2020/01/18 04:35 UTC NOAA

Station name not available
Jan 17, 2020 - 11:35 PM EST / 2020.01.18 0435 UTC
Wind: from the SSE (150 degrees) at 15 MPH (13 KT) gusting to 21 MPH (18 KT):0
Visibility: 10 mile(s):0
Sky conditions: overcast
Temperature: 59 F (15 C)
Dew Point: 33 F (1 C)
Relative Humidity: 38%
Pressure (altimeter): 30.23 in. Hg (1023 hPa)
ob: KCRX 180435Z AUTO 15013G18KT 10SM BKN046 OVC085 15/01 A3023 RMK AO2
cycle: 4

Station Type Date Time Source
KCRX TAF UTC NOAA

Error!

Example: see airport list